Time;durP1;ratioP1;P1;durP2;ratioP2;P2;SDS_P1;SDS_P2;PMS_P1;PMS_P2;Temp;Humidity;BMP_temperature;BMP_pressure;BME280_temperature;BME280_humidity;BME280_pressure;Samples;Min_cycle;Max_cycle;Signal;HPM_P1;HPM_P2
2022/08/21 00:00:12;;;;;;;7.90;7.10;;;21.30;99.90;;;;;;5013227;28;20443;-48
2022/08/21 00:02:46;;;;;;;7.73;7.00;;;21.50;99.90;;;;;;5013410;28;20435;-48
2022/08/21 00:05:12;;;;;;;8.73;7.93;;;20.80;99.90;;;;;;5012465;28;20478;-48
2022/08/21 00:07:39;;;;;;;7.97;7.30;;;21.20;99.90;;;;;;5013563;28;20435;-48
2022/08/21 00:10:07;;;;;;;6.80;6.20;;;21.40;99.90;;;;;;5012954;28;20440;-48
2022/08/21 00:12:33;;;;;;;7.93;7.23;;;21.20;99.90;;;;;;5013278;28;20438;-48
2022/08/21 00:15:00;;;;;;;9.60;8.70;;;21.20;99.90;;;;;;5013604;28;20443;-48
2022/08/21 00:17:28;;;;;;;8.80;7.97;;;21.20;99.90;;;;;;5013166;28;20483;-48
2022/08/21 00:19:55;;;;;;;9.43;8.63;;;21.10;99.90;;;;;;5013305;28;20442;-48
2022/08/21 00:22:21;;;;;;;8.77;7.60;;;21.30;99.90;;;;;;5013387;28;20516;-48
2022/08/21 00:24:48;;;;;;;8.73;7.80;;;21.10;99.90;;;;;;5013321;28;20471;-49
2022/08/21 00:27:14;;;;;;;10.53;8.40;;;21.10;99.90;;;;;;5013357;28;20439;-49
2022/08/21 00:29:41;;;;;;;10.10;8.03;;;21.10;99.90;;;;;;5013064;28;20435;-49
2022/08/21 00:32:08;;;;;;;9.43;8.53;;;21.30;99.90;;;;;;5013026;28;20449;-47
2022/08/21 00:34:36;;;;;;;9.97;8.10;;;21.00;99.90;;;;;;5012827;28;20482;-48
2022/08/21 00:37:02;;;;;;;8.80;8.00;;;21.00;99.90;;;;;;5013163;28;20480;-49
2022/08/21 00:39:29;;;;;;;12.60;8.73;;;21.00;99.90;;;;;;5012503;28;20442;-49
2022/08/21 00:41:56;;;;;;;15.10;7.67;;;20.80;99.90;;;;;;5011790;28;20451;-49
2022/08/21 00:44:22;;;;;;;7.70;6.93;;;20.90;99.90;;;;;;5012593;28;20462;-49
2022/08/21 00:46:49;;;;;;;8.37;7.50;;;20.90;99.90;;;;;;5012885;28;20774;-47
2022/08/21 00:49:16;;;;;;;10.90;7.60;;;20.90;99.90;;;;;;5012397;28;20439;-48
2022/08/21 00:51:49;;;;;;;9.33;7.93;;;20.90;99.90;;;;;;5012872;28;20441;-48
2022/08/21 00:54:17;;;;;;;8.37;7.53;;;20.80;99.90;;;;;;5012667;28;20473;-48
2022/08/21 00:56:44;;;;;;;8.03;7.33;;;20.90;99.90;;;;;;5012685;28;20852;-48
2022/08/21 00:59:11;;;;;;;10.00;7.27;;;20.90;99.90;;;;;;5012429;28;20462;-47
2022/08/21 01:01:38;;;;;;;7.77;7.10;;;20.80;99.90;;;;;;5012645;28;20447;-48
2022/08/21 01:04:04;;;;;;;8.30;7.60;;;20.90;99.90;;;;;;5012546;28;20473;-49
2022/08/21 01:06:31;;;;;;;8.17;7.37;;;20.80;99.90;;;;;;5012367;28;20498;-49
2022/08/21 01:09:00;;;;;;;10.53;7.73;;;20.80;99.90;;;;;;5012433;28;20846;-49
2022/08/21 01:11:26;;;;;;;7.80;7.17;;;20.90;99.90;;;;;;5012581;28;20443;-48
2022/08/21 01:13:54;;;;;;;8.37;7.53;;;20.80;99.90;;;;;;5010873;28;20470;-49
2022/08/21 01:16:22;;;;;;;9.07;8.00;;;20.80;99.90;;;;;;5012349;28;20454;-48
2022/08/21 01:18:50;;;;;;;8.10;7.40;;;20.50;99.90;;;;;;5010527;28;20486;-49
2022/08/21 01:21:20;;;;;;;7.77;7.00;;;20.70;99.90;;;;;;5012247;28;20441;-49
2022/08/21 01:23:49;;;;;;;8.93;8.10;;;20.70;99.90;;;;;;5012153;28;20486;-48
2022/08/21 01:26:19;;;;;;;7.87;7.20;;;20.70;99.90;;;;;;5012227;28;20438;-48
2022/08/21 01:28:50;;;;;;;8.47;7.63;;;20.60;99.90;;;;;;5010796;28;20450;-49
2022/08/21 01:31:20;;;;;;;7.30;6.60;;;20.60;99.90;;;;;;5011990;28;20429;-48
2022/08/21 01:33:46;;;;;;;10.23;6.50;;;20.60;99.90;;;;;;5012120;28;20898;-48
2022/08/21 01:36:13;;;;;;;7.30;6.57;;;20.60;99.90;;;;;;5012136;28;20434;-47
2022/08/21 01:38:41;;;;;;;9.70;6.33;;;20.50;99.90;;;;;;5011651;28;20531;-48
2022/08/21 01:41:08;;;;;;;7.67;6.87;;;20.50;99.90;;;;;;5012019;28;20430;-48
2022/08/21 01:43:34;;;;;;;10.67;7.23;;;20.50;99.90;;;;;;5012208;28;20458;-48
2022/08/21 01:46:02;;;;;;;11.23;7.70;;;20.50;99.90;;;;;;5012012;28;20426;-48
2022/08/21 01:48:29;;;;;;;7.93;7.23;;;20.60;99.90;;;;;;5011460;28;20489;-47
2022/08/21 01:50:55;;;;;;;6.77;6.13;;;20.50;99.90;;;;;;5011995;28;20445;-48
2022/08/21 01:53:22;;;;;;;9.93;7.03;;;20.40;99.90;;;;;;5011571;28;20457;-47
2022/08/21 01:55:50;;;;;;;7.37;6.10;;;20.40;99.90;;;;;;5011957;28;20433;-48
2022/08/21 01:58:17;;;;;;;8.90;6.50;;;20.50;99.90;;;;;;5011785;28;20478;-47
2022/08/21 02:00:43;;;;;;;7.10;6.03;;;20.30;99.90;;;;;;5011217;28;20438;-48
2022/08/21 02:03:10;;;;;;;7.70;6.43;;;20.30;99.90;;;;;;5011699;28;20494;-48
2022/08/21 02:05:36;;;;;;;10.23;7.10;;;20.40;99.90;;;;;;5011691;28;20430;-48
2022/08/21 02:08:03;;;;;;;8.30;6.27;;;20.20;99.90;;;;;;5011703;28;20927;-48
2022/08/21 02:10:32;;;;;;;8.07;5.60;;;20.20;99.90;;;;;;5011502;28;20449;-48
2022/08/21 02:13:01;;;;;;;7.53;5.57;;;20.20;99.90;;;;;;5011880;28;20466;-48
2022/08/21 02:15:28;;;;;;;6.87;5.67;;;20.20;99.90;;;;;;5011877;28;20781;-48
2022/08/21 02:17:58;;;;;;;11.33;5.53;;;20.10;99.90;;;;;;5011407;28;20916;-48
2022/08/21 02:20:27;;;;;;;10.87;5.80;;;20.10;99.90;;;;;;5011126;28;20430;-48
2022/08/21 02:22:54;;;;;;;5.90;5.30;;;20.10;99.90;;;;;;5011392;28;20473;-47
2022/08/21 02:25:22;;;;;;;6.97;5.27;;;20.00;99.90;;;;;;5011811;28;20450;-47
2022/08/21 02:27:50;;;;;;;7.07;5.37;;;20.10;99.90;;;;;;5011399;28;20979;-49
2022/08/21 02:30:21;;;;;;;9.93;5.60;;;20.00;99.90;;;;;;5010008;28;20498;-48
2022/08/21 02:32:48;;;;;;;10.00;4.90;;;20.00;99.90;;;;;;5011439;28;20457;-48
2022/08/21 02:35:15;;;;;;;7.43;5.67;;;20.00;99.90;;;;;;5011472;28;20437;-48
2022/08/21 02:37:47;;;;;;;5.60;4.40;;;19.90;99.90;;;;;;5011350;28;20906;-48
2022/08/21 02:40:14;;;;;;;9.20;5.33;;;20.00;99.90;;;;;;5011169;28;20433;-48
2022/08/21 02:42:41;;;;;;;6.47;5.27;;;19.90;99.90;;;;;;5011366;28;20450;-48
2022/08/21 02:45:08;;;;;;;8.73;4.93;;;19.90;99.90;;;;;;5011302;28;20531;-48
2022/08/21 02:47:37;;;;;;;5.80;4.57;;;20.10;99.90;;;;;;5011497;28;20795;-48
2022/08/21 02:50:04;;;;;;;7.43;4.90;;;19.90;99.90;;;;;;5010926;28;20442;-48
2022/08/21 02:52:31;;;;;;;7.43;4.13;;;19.80;99.90;;;;;;5011255;28;20434;-48
2022/08/21 02:54:58;;;;;;;9.23;4.70;;;19.80;99.90;;;;;;5011300;28;20430;-48
2022/08/21 02:57:24;;;;;;;5.37;4.40;;;19.80;99.90;;;;;;5009858;28;20915;-48
2022/08/21 02:59:51;;;;;;;8.10;4.77;;;19.80;99.90;;;;;;5011141;28;20840;-48
2022/08/21 03:02:18;;;;;;;6.27;5.20;;;19.70;99.90;;;;;;5011242;28;20483;-48
2022/08/21 03:04:45;;;;;;;8.03;4.30;;;19.70;99.90;;;;;;5012753;28;20452;-48
2022/08/21 03:07:12;;;;;;;6.27;4.30;;;19.70;99.90;;;;;;5013364;28;20459;-48
2022/08/21 03:09:39;;;;;;;6.57;4.50;;;19.70;99.90;;;;;;5014414;28;20443;-49
2022/08/21 03:12:06;;;;;;;7.23;4.23;;;19.70;99.90;;;;;;5014838;28;20437;-48
2022/08/21 03:14:32;;;;;;;7.67;4.33;;;19.60;99.90;;;;;;5014601;28;20452;-48
2022/08/21 03:16:59;;;;;;;6.30;3.87;;;19.80;99.90;;;;;;5014400;28;20446;-48
2022/08/21 03:19:26;;;;;;;9.30;4.97;;;19.60;99.90;;;;;;5014284;28;20488;-48
2022/08/21 03:21:53;;;;;;;9.17;4.63;;;19.50;99.90;;;;;;5013147;28;20495;-48
2022/08/21 03:24:20;;;;;;;6.23;3.50;;;19.50;99.90;;;;;;5014107;28;20480;-48
2022/08/21 03:26:47;;;;;;;5.53;3.30;;;19.50;99.90;;;;;;5014317;28;20437;-48
2022/08/21 03:29:13;;;;;;;9.50;4.40;;;19.50;99.90;;;;;;5014061;28;20452;-48
2022/08/21 03:31:40;;;;;;;8.80;4.30;;;19.50;99.90;;;;;;5013913;28;20441;-49
2022/08/21 03:34:07;;;;;;;8.90;3.60;;;19.40;99.90;;;;;;5014166;28;20889;-48
2022/08/21 03:36:33;;;;;;;5.10;3.80;;;19.40;99.90;;;;;;5014173;28;20432;-47
2022/08/21 03:39:01;;;;;;;5.40;4.13;;;19.40;99.90;;;;;;5013341;28;20613;-48
2022/08/21 03:41:28;;;;;;;6.50;4.00;;;19.40;99.90;;;;;;5013876;28;20490;-48
2022/08/21 03:43:55;;;;;;;5.73;4.37;;;19.40;99.90;;;;;;5013949;28;20969;-48
2022/08/21 03:46:21;;;;;;;7.13;4.33;;;19.30;99.90;;;;;;5014040;28;20436;-48
2022/08/21 03:48:48;;;;;;;9.90;4.80;;;19.30;99.90;;;;;;5013432;28;20456;-49
2022/08/21 03:51:15;;;;;;;5.07;3.80;;;19.30;99.90;;;;;;5013789;28;20439;-49
2022/08/21 03:53:41;;;;;;;7.23;4.27;;;19.20;99.90;;;;;;5013882;28;20470;-48
2022/08/21 03:56:09;;;;;;;7.80;4.10;;;19.30;99.90;;;;;;5013745;28;20791;-48
2022/08/21 03:58:38;;;;;;;7.47;3.83;;;19.30;99.90;;;;;;5013294;28;21007;-48
2022/08/21 04:01:06;;;;;;;7.43;5.03;;;19.30;99.90;;;;;;5013664;28;20429;-48
2022/08/21 04:03:35;;;;;;;5.77;3.70;;;19.20;99.90;;;;;;5012106;28;20507;-48
2022/08/21 04:06:02;;;;;;;6.30;4.10;;;19.30;99.90;;;;;;5013434;28;20937;-48
2022/08/21 04:08:29;;;;;;;7.67;3.30;;;19.30;99.90;;;;;;5013093;28;20794;-48
2022/08/21 04:10:58;;;;;;;5.83;4.23;;;19.30;99.90;;;;;;5013583;28;20448;-49
2022/08/21 04:13:27;;;;;;;9.27;3.93;;;19.20;99.90;;;;;;5011970;28;20481;-49
2022/08/21 04:15:55;;;;;;;6.47;3.83;;;19.10;99.90;;;;;;5013261;28;20440;-48
2022/08/21 04:18:21;;;;;;;13.30;3.80;;;19.20;99.90;;;;;;5013219;28;20482;-49
2022/08/21 04:20:52;;;;;;;8.60;4.50;;;19.30;99.90;;;;;;5013202;28;20966;-48
2022/08/21 04:23:19;;;;;;;7.87;3.73;;;19.20;99.90;;;;;;5013551;28;20494;-48
2022/08/21 04:25:46;;;;;;;6.93;3.60;;;19.20;99.90;;;;;;5013318;28;20436;-46
2022/08/21 04:28:12;;;;;;;7.20;3.70;;;19.20;99.90;;;;;;5013033;28;20531;-48
2022/08/21 04:30:40;;;;;;;8.50;4.00;;;19.30;99.90;;;;;;5012895;28;20440;-47
2022/08/21 04:33:07;;;;;;;7.67;3.50;;;19.10;99.90;;;;;;5013015;28;20462;-47
2022/08/21 04:35:34;;;;;;;5.63;3.33;;;19.10;99.90;;;;;;5013242;28;20440;-46
2022/08/21 04:38:00;;;;;;;6.80;3.00;;;19.20;99.90;;;;;;5013144;28;20442;-46
2022/08/21 04:40:28;;;;;;;5.40;3.10;;;19.10;99.90;;;;;;5012912;28;20437;-46
2022/08/21 04:42:59;;;;;;;6.67;3.23;;;19.40;99.90;;;;;;5012954;28;20793;-46
2022/08/21 04:45:28;;;;;;;4.70;2.80;;;19.20;99.90;;;;;;5012993;28;20823;-46
2022/08/21 04:47:58;;;;;;;6.80;3.13;;;19.10;99.90;;;;;;5012847;28;20432;-47
2022/08/21 04:50:28;;;;;;;9.87;5.43;;;19.10;99.90;;;;;;5012657;28;20443;-46
2022/08/21 04:53:04;;;;;;;4.73;3.10;;;18.90;99.90;;;;;;5012600;28;20448;-47
2022/08/21 04:55:31;;;;;;;5.47;3.40;;;19.10;99.90;;;;;;5012615;28;20523;-47
2022/08/21 04:57:58;;;;;;;5.97;2.80;;;19.00;99.90;;;;;;5012479;28;20442;-47
2022/08/21 05:00:25;;;;;;;6.33;3.00;;;19.10;99.90;;;;;;5012169;28;20775;-46
2022/08/21 05:02:58;;;;;;;11.33;3.47;;;19.10;99.90;;;;;;5012389;28;20463;-46
2022/08/21 05:05:25;;;;;;;5.73;3.30;;;19.10;99.90;;;;;;5012742;28;20530;-45
2022/08/21 05:07:53;;;;;;;6.37;3.50;;;19.10;99.90;;;;;;5012751;28;20527;-46
2022/08/21 05:10:20;;;;;;;4.53;2.90;;;19.10;99.90;;;;;;5012474;28;20494;-46
2022/08/21 05:12:47;;;;;;;7.27;2.80;;;19.20;99.90;;;;;;5012585;28;20467;-46
2022/08/21 05:15:13;;;;;;;8.07;3.33;;;18.90;99.90;;;;;;5012325;28;20527;-46
2022/08/21 05:17:40;;;;;;;5.57;2.87;;;19.20;99.90;;;;;;5012306;28;20450;-46
2022/08/21 05:20:10;;;;;;;8.53;2.87;;;19.30;99.90;;;;;;5010445;28;20479;-46
2022/08/21 05:22:36;;;;;;;5.00;2.83;;;19.30;99.90;;;;;;5011847;28;20433;-46
2022/08/21 05:25:04;;;;;;;4.33;3.17;;;19.30;99.90;;;;;;5012336;28;20463;-46
2022/08/21 05:27:31;;;;;;;6.03;3.10;;;19.30;99.90;;;;;;5010467;28;20452;-46
2022/08/21 05:29:58;;;;;;;6.70;3.23;;;19.60;99.90;;;;;;5011894;28;20435;-46
2022/08/21 05:32:27;;;;;;;6.60;3.37;;;19.30;99.90;;;;;;5012280;28;20799;-46
2022/08/21 05:34:54;;;;;;;6.23;3.60;;;19.30;99.90;;;;;;5010746;28;20468;-47
2022/08/21 05:37:22;;;;;;;7.53;3.70;;;19.30;99.90;;;;;;5012206;28;20440;-47
2022/08/21 05:39:49;;;;;;;6.00;2.57;;;19.30;99.90;;;;;;5011773;28;20476;-47
2022/08/21 05:42:16;;;;;;;7.37;3.03;;;19.40;99.90;;;;;;5011950;28;20425;-46
2022/08/21 05:44:42;;;;;;;9.10;2.40;;;19.60;99.90;;;;;;5011721;28;20466;-46
2022/08/21 05:47:10;;;;;;;7.10;2.60;;;19.40;99.90;;;;;;5011900;28;20441;-46
2022/08/21 05:49:37;;;;;;;6.17;2.67;;;19.40;99.90;;;;;;5011791;28;20459;-46
2022/08/21 05:52:04;;;;;;;6.70;3.00;;;19.50;99.90;;;;;;5011861;28;20819;-47
2022/08/21 05:54:33;;;;;;;5.93;2.53;;;19.50;99.90;;;;;;5011864;28;20460;-47
2022/08/21 05:56:59;;;;;;;6.60;2.83;;;19.50;99.90;;;;;;5011913;28;20440;-47
2022/08/21 05:59:27;;;;;;;6.33;2.83;;;19.50;99.90;;;;;;5011317;28;20480;-46
2022/08/21 06:01:54;;;;;;;6.97;3.10;;;19.40;99.90;;;;;;5011717;28;20425;-47
2022/08/21 06:04:20;;;;;;;3.93;2.60;;;19.60;99.90;;;;;;5011901;28;20463;-46
2022/08/21 06:06:48;;;;;;;7.60;2.67;;;19.40;99.90;;;;;;5012106;28;20746;-48
2022/08/21 06:09:14;;;;;;;5.07;2.63;;;19.60;99.90;;;;;;5011740;28;20498;-45
2022/08/21 06:11:42;;;;;;;6.03;2.90;;;19.60;99.90;;;;;;5011819;28;20456;-46
2022/08/21 06:14:09;;;;;;;4.70;2.20;;;19.60;99.90;;;;;;5011703;28;20553;-46
2022/08/21 06:16:36;;;;;;;8.43;2.40;;;19.60;99.90;;;;;;5012064;28;20436;-46
2022/08/21 06:19:02;;;;;;;12.10;3.37;;;19.70;99.90;;;;;;5011864;28;20515;-46
2022/08/21 06:21:29;;;;;;;3.90;2.33;;;19.70;99.90;;;;;;5012007;28;20438;-46
2022/08/21 06:23:56;;;;;;;7.77;2.60;;;19.70;99.90;;;;;;5011626;28;20477;-46
2022/08/21 06:26:23;;;;;;;7.97;2.73;;;19.70;99.90;;;;;;5011668;28;20434;-45
2022/08/21 06:28:51;;;;;;;4.70;2.50;;;19.80;99.90;;;;;;5011720;28;20444;-46
2022/08/21 06:31:20;;;;;;;5.00;2.07;;;19.80;99.90;;;;;;5011543;28;20432;-46
2022/08/21 06:33:48;;;;;;;6.87;2.60;;;19.80;99.90;;;;;;5011293;28;20825;-47
2022/08/21 06:36:14;;;;;;;6.90;3.03;;;19.90;99.90;;;;;;5011554;28;20433;-46
2022/08/21 06:38:41;;;;;;;6.60;2.40;;;19.90;99.90;;;;;;5011107;28;20883;-47
2022/08/21 06:41:09;;;;;;;6.30;3.10;;;19.90;99.90;;;;;;5015253;28;20798;-48
2022/08/21 06:43:35;;;;;;;4.83;2.50;;;19.80;99.90;;;;;;5014915;28;20464;-45
2022/08/21 06:46:03;;;;;;;8.10;2.67;;;20.00;99.90;;;;;;5014975;28;20532;-47
2022/08/21 06:48:31;;;;;;;5.17;2.57;;;20.00;99.90;;;;;;5014815;28;20455;-47
2022/08/21 06:50:59;;;;;;;7.10;2.30;;;20.20;99.90;;;;;;5015079;28;20443;-47
2022/08/21 06:53:26;;;;;;;7.67;3.40;;;20.00;99.90;;;;;;5014770;28;20457;-46
2022/08/21 06:55:52;;;;;;;3.37;2.33;;;20.30;99.90;;;;;;5015295;28;20408;-46
2022/08/21 06:58:20;;;;;;;5.60;2.43;;;20.40;99.90;;;;;;5015049;28;20445;-47
2022/08/21 07:00:51;;;;;;;5.50;2.23;;;20.50;99.90;;;;;;5014532;28;20473;-47
2022/08/21 07:03:22;;;;;;;3.70;2.10;;;20.00;99.90;;;;;;5014670;28;20473;-47
2022/08/21 07:05:49;;;;;;;4.60;2.40;;;20.60;99.90;;;;;;5014628;28;20525;-47
2022/08/21 07:08:17;;;;;;;5.03;2.77;;;20.70;99.90;;;;;;5013328;28;20445;-46
2022/08/21 07:10:44;;;;;;;4.10;2.80;;;20.70;99.90;;;;;;5014181;28;20545;-46
2022/08/21 07:13:11;;;;;;;6.80;2.73;;;20.80;99.90;;;;;;5014595;28;20454;-46
2022/08/21 07:15:38;;;;;;;5.80;2.97;;;20.90;99.90;;;;;;5014355;28;20451;-46
2022/08/21 07:18:05;;;;;;;9.80;3.00;;;20.70;99.90;;;;;;5014417;28;20940;-47
2022/08/21 07:20:34;;;;;;;6.83;2.87;;;21.00;99.90;;;;;;5014054;28;20490;-46
2022/08/21 07:23:04;;;;;;;6.60;3.00;;;21.00;99.90;;;;;;5014244;28;20504;-48
2022/08/21 07:25:31;;;;;;;4.10;2.30;;;21.30;99.90;;;;;;5014401;28;20430;-46
2022/08/21 07:27:58;;;;;;;8.43;2.60;;;21.10;99.90;;;;;;5014587;28;20954;-47
2022/08/21 07:30:25;;;;;;;5.90;2.03;;;21.20;99.90;;;;;;5014025;28;20917;-47
2022/08/21 07:32:52;;;;;;;6.10;2.00;;;21.10;99.90;;;;;;5014560;28;20451;-46
2022/08/21 07:35:22;;;;;;;4.03;2.00;;;21.10;99.90;;;;;;5014715;28;20550;-48
2022/08/21 07:37:51;;;;;;;4.20;2.40;;;21.00;99.90;;;;;;5014427;28;21000;-47
2022/08/21 07:40:18;;;;;;;4.17;1.73;;;21.10;99.90;;;;;;5014184;28;20540;-48
2022/08/21 07:42:46;;;;;;;5.40;1.90;;;21.30;99.90;;;;;;5014199;28;20496;-47
2022/08/21 07:45:14;;;;;;;5.83;2.10;;;21.40;99.90;;;;;;5014371;28;20458;-47
2022/08/21 07:47:41;;;;;;;5.20;1.93;;;21.40;99.90;;;;;;5013782;28;20427;-47
2022/08/21 07:50:08;;;;;;;3.57;1.80;;;21.50;99.90;;;;;;5012806;28;20794;-47
2022/08/21 07:52:35;;;;;;;6.97;2.07;;;21.70;99.60;;;;;;5013726;28;20440;-47
2022/08/21 07:55:03;;;;;;;7.10;2.73;;;21.70;99.20;;;;;;5014820;28;20530;-47
2022/08/21 07:57:30;;;;;;;5.23;1.83;;;21.60;98.70;;;;;;5014146;28;20946;-46
2022/08/21 07:59:57;;;;;;;8.70;1.73;;;21.30;98.30;;;;;;5013478;28;20492;-46
2022/08/21 08:02:25;;;;;;;4.20;1.83;;;21.50;98.20;;;;;;5013823;28;20435;-47
2022/08/21 08:04:51;;;;;;;4.00;1.70;;;21.40;97.90;;;;;;5014338;28;20439;-48
2022/08/21 08:07:18;;;;;;;4.40;1.97;;;21.50;97.60;;;;;;5015143;28;20485;-47
2022/08/21 08:09:45;;;;;;;4.70;2.10;;;21.50;97.50;;;;;;5014235;28;20918;-46
2022/08/21 08:12:13;;;;;;;6.17;1.70;;;21.40;97.30;;;;;;5014293;28;20443;-47
2022/08/21 08:14:40;;;;;;;5.63;1.80;;;21.40;97.30;;;;;;5014752;28;20451;-48
2022/08/21 08:17:06;;;;;;;7.07;2.60;;;21.50;97.20;;;;;;5013460;28;20439;-47
2022/08/21 08:19:33;;;;;;;7.63;1.70;;;21.60;97.10;;;;;;5013420;28;20490;-45
2022/08/21 08:22:00;;;;;;;4.00;1.93;;;21.70;97.10;;;;;;5014102;28;20537;-46
2022/08/21 08:24:26;;;;;;;5.67;2.20;;;21.40;96.60;;;;;;5013829;28;20474;-46
2022/08/21 08:26:56;;;;;;;3.83;1.73;;;22.00;96.80;;;;;;5014248;28;20521;-46
2022/08/21 08:29:24;;;;;;;5.40;2.00;;;21.80;96.40;;;;;;5012817;28;20474;-47
2022/08/21 08:31:51;;;;;;;5.60;1.50;;;21.90;95.80;;;;;;5014200;28;20436;-47
2022/08/21 08:34:19;;;;;;;5.57;1.93;;;21.90;95.60;;;;;;5014034;28;20968;-45
2022/08/21 08:36:46;;;;;;;6.33;2.23;;;22.10;95.80;;;;;;5013362;28;20457;-46
2022/08/21 08:39:12;;;;;;;5.30;1.93;;;22.00;95.60;;;;;;5013245;28;20808;-47
2022/08/21 08:41:40;;;;;;;3.77;1.40;;;22.00;95.60;;;;;;5013113;28;20522;-47
2022/08/21 08:44:07;;;;;;;5.50;2.33;;;22.00;95.90;;;;;;5012683;28;20449;-47
2022/08/21 08:46:39;;;;;;;6.87;2.63;;;22.00;95.60;;;;;;5012496;28;20466;-46
2022/08/21 08:49:12;;;;;;;5.53;2.10;;;22.00;95.50;;;;;;5012215;28;20443;-48
2022/08/21 08:51:45;;;;;;;8.10;2.67;;;22.10;95.50;;;;;;5012547;28;20514;-48
2022/08/21 08:54:18;;;;;;;6.27;2.17;;;22.20;95.10;;;;;;5012669;28;20457;-45
2022/08/21 08:56:45;;;;;;;5.03;2.00;;;22.20;94.80;;;;;;5012681;28;20431;-47
2022/08/21 08:59:18;;;;;;;3.93;1.83;;;22.20;94.80;;;;;;5012384;28;20448;-46
2022/08/21 09:01:46;;;;;;;4.23;1.70;;;22.40;94.40;;;;;;5011455;28;20432;-47
2022/08/21 09:04:15;;;;;;;5.30;2.33;;;22.30;94.20;;;;;;5012504;28;20995;-47
2022/08/21 09:07:04;;;;;;;4.60;2.10;;;22.40;94.20;;;;;;5012836;28;20510;-45
2022/08/21 09:09:43;;;;;;;6.70;1.67;;;22.40;93.50;;;;;;5011757;28;20445;-48
2022/08/21 09:12:15;;;;;;;5.00;2.00;;;22.50;93.80;;;;;;5012280;28;20448;-47
2022/08/21 09:14:55;;;;;;;3.47;1.83;;;23.00;94.10;;;;;;5012304;28;20457;-47
2022/08/21 09:17:39;;;;;;;5.50;1.90;;;22.80;93.70;;;;;;5012756;28;20785;-47
2022/08/21 09:20:19;;;;;;;5.60;1.70;;;22.90;93.20;;;;;;5011859;28;20510;-47
2022/08/21 09:23:00;;;;;;;4.80;1.60;;;22.90;92.30;;;;;;5012479;28;20473;-48
2022/08/21 09:25:31;;;;;;;7.47;2.13;;;22.90;91.80;;;;;;5012851;28;20444;-47
2022/08/21 09:27:58;;;;;;;4.03;1.97;;;22.90;91.90;;;;;;5012318;28;20437;-47
2022/08/21 09:30:27;;;;;;;4.10;1.70;;;22.90;91.80;;;;;;5011182;28;20446;-47
2022/08/21 09:32:56;;;;;;;4.33;1.70;;;23.00;92.10;;;;;;5010492;28;20477;-47
2022/08/21 09:35:24;;;;;;;4.53;2.07;;;23.00;91.80;;;;;;5012330;28;20446;-45
2022/08/21 09:37:54;;;;;;;5.70;1.93;;;23.00;91.90;;;;;;5011914;28;20434;-46
2022/08/21 09:40:36;;;;;;;5.43;2.17;;;23.10;91.60;;;;;;5011844;28;20488;-47
2022/08/21 09:43:06;;;;;;;3.47;2.00;;;23.20;91.10;;;;;;5011467;28;20451;-46
2022/08/21 09:45:33;;;;;;;4.37;1.67;;;23.30;91.30;;;;;;5011744;28;20785;-47
2022/08/21 09:48:11;;;;;;;8.57;2.00;;;23.30;90.90;;;;;;5011910;28;20934;-47
2022/08/21 09:50:39;;;;;;;4.60;1.73;;;23.40;90.60;;;;;;5011570;28;20439;-46
2022/08/21 09:53:15;;;;;;;3.93;1.60;;;23.40;90.90;;;;;;5011465;28;20581;-46
2022/08/21 09:58:38;;;;;;;5.30;1.90;;;23.60;90.40;;;;;;5011119;28;20467;-48
2022/08/21 10:01:07;;;;;;;3.73;1.87;;;23.60;90.20;;;;;;5010997;28;20490;-46
2022/08/21 10:03:35;;;;;;;4.03;1.90;;;23.70;89.50;;;;;;5011611;28;20458;-47
2022/08/21 10:06:08;;;;;;;5.47;1.90;;;23.70;88.90;;;;;;5009850;28;20458;-46
2022/08/21 10:08:37;;;;;;;6.17;2.00;;;23.80;89.10;;;;;;5010982;28;20467;-48
2022/08/21 10:11:11;;;;;;;5.93;2.20;;;23.60;88.70;;;;;;5011319;28;20439;-46
2022/08/21 10:13:48;;;;;;;5.17;2.20;;;23.80;89.00;;;;;;5012951;28;20451;-48
2022/08/21 10:16:40;;;;;;;4.13;1.30;;;23.90;87.60;;;;;;5015328;28;20466;-47
2022/08/21 10:19:20;;;;;;;3.93;1.90;;;23.90;85.90;;;;;;5015161;28;20557;-48
2022/08/21 10:21:59;;;;;;;3.30;1.60;;;23.60;84.90;;;;;;5015098;28;20490;-46
2022/08/21 10:24:32;;;;;;;6.80;1.77;;;23.80;84.30;;;;;;5015490;28;20838;-48
2022/08/21 10:27:10;;;;;;;4.47;1.83;;;23.80;84.70;;;;;;5015115;28;20443;-48
2022/08/21 10:29:47;;;;;;;5.87;1.83;;;23.90;84.70;;;;;;5014617;28;20435;-49
2022/08/21 10:32:26;;;;;;;4.90;2.17;;;23.90;84.60;;;;;;5015051;28;20438;-50
2022/08/21 10:35:02;;;;;;;5.23;2.47;;;23.80;83.90;;;;;;5014946;28;20520;-50
2022/08/21 10:37:38;;;;;;;6.97;1.83;;;23.90;84.40;;;;;;5014883;28;20444;-49
2022/08/21 10:40:16;;;;;;;4.13;2.53;;;24.00;83.90;;;;;;5014223;28;20472;-49
2022/08/21 10:42:52;;;;;;;4.40;2.20;;;24.10;83.40;;;;;;5014616;28;20447;-48
2022/08/21 10:45:31;;;;;;;5.87;2.10;;;24.20;83.20;;;;;;5014954;28;20474;-50
2022/08/21 10:48:03;;;;;;;3.67;1.90;;;24.30;83.10;;;;;;5014692;28;20443;-48
2022/08/21 10:50:38;;;;;;;6.87;2.53;;;24.40;83.00;;;;;;5014419;28;20432;-49
2022/08/21 10:53:17;;;;;;;3.70;2.00;;;24.50;81.30;;;;;;5014664;28;20451;-49
2022/08/21 10:55:49;;;;;;;4.60;2.10;;;24.40;80.90;;;;;;5015160;28;20443;-49
2022/08/21 10:58:24;;;;;;;5.80;2.33;;;24.40;80.50;;;;;;5014544;28;20433;-49
2022/08/21 11:00:56;;;;;;;3.93;1.70;;;24.40;81.00;;;;;;5014319;28;21046;-49
2022/08/21 11:03:28;;;;;;;6.40;1.57;;;24.50;80.60;;;;;;5013771;28;20959;-49
2022/08/21 11:06:01;;;;;;;5.70;2.30;;;24.40;79.40;;;;;;5014540;28;20793;-50
2022/08/21 11:08:34;;;;;;;13.63;2.80;;;24.40;78.00;;;;;;5013637;28;20971;-49
2022/08/21 11:11:06;;;;;;;4.77;1.90;;;24.40;78.00;;;;;;5014468;28;20428;-49
2022/08/21 11:13:40;;;;;;;2.83;1.40;;;24.40;77.00;;;;;;5014121;28;20448;-49
2022/08/21 11:16:15;;;;;;;3.00;1.50;;;24.00;76.40;;;;;;5013721;28;20863;-48
2022/08/21 11:18:47;;;;;;;2.90;1.47;;;24.50;75.10;;;;;;5013550;28;20440;-48
2022/08/21 11:21:28;;;;;;;4.10;1.90;;;24.50;76.40;;;;;;5013746;28;20472;-49
2022/08/21 11:24:03;;;;;;;3.73;1.70;;;24.70;75.50;;;;;;5013967;28;20841;-49
2022/08/21 11:26:35;;;;;;;4.63;1.83;;;24.70;75.30;;;;;;5013430;28;20526;-49
2022/08/21 11:29:09;;;;;;;4.63;1.53;;;24.60;73.30;;;;;;5013657;28;20763;-49
2022/08/21 11:31:50;;;;;;;2.83;1.90;;;24.70;72.70;;;;;;5014220;28;20857;-49
2022/08/21 11:34:35;;;;;;;3.33;1.53;;;24.70;71.40;;;;;;5013985;28;20770;-49
2022/08/21 11:37:11;;;;;;;3.40;1.03;;;24.80;70.90;;;;;;5013584;28;20438;-49
2022/08/21 11:39:47;;;;;;;4.07;1.50;;;24.70;70.40;;;;;;5013544;28;20530;-49
2022/08/21 11:42:20;;;;;;;3.43;1.50;;;24.70;70.30;;;;;;5013580;28;20475;-49
2022/08/21 11:44:54;;;;;;;4.13;1.53;;;24.70;69.20;;;;;;5013778;28;20448;-49
2022/08/21 11:47:31;;;;;;;3.90;1.17;;;24.70;68.90;;;;;;5013528;28;20436;-50
2022/08/21 11:50:07;;;;;;;3.17;1.30;;;24.70;67.50;;;;;;5013509;28;20439;-48
2022/08/21 11:52:39;;;;;;;2.63;0.93;;;24.80;66.80;;;;;;5013764;28;20807;-50
2022/08/21 11:55:13;;;;;;;2.10;1.13;;;24.70;63.90;;;;;;5013029;28;20814;-48
2022/08/21 11:57:51;;;;;;;1.73;1.00;;;24.70;64.40;;;;;;5013592;28;20436;-49
2022/08/21 12:00:21;;;;;;;3.70;1.17;;;24.90;63.60;;;;;;5012889;28;20784;-49
2022/08/21 12:02:53;;;;;;;3.73;1.40;;;24.90;62.60;;;;;;5013069;28;20885;-49
2022/08/21 12:05:32;;;;;;;1.43;0.90;;;24.90;63.40;;;;;;5013412;28;20443;-49
2022/08/21 12:08:13;;;;;;;3.87;1.10;;;25.00;61.70;;;;;;5013243;28;20527;-49
2022/08/21 12:10:42;;;;;;;2.97;1.00;;;24.90;60.50;;;;;;5013120;28;20657;-50
2022/08/21 12:13:23;;;;;;;6.23;1.47;;;25.00;60.20;;;;;;5012486;28;20472;-49
2022/08/21 12:15:50;;;;;;;3.33;1.40;;;25.10;60.50;;;;;;5013533;28;20443;-49
2022/08/21 12:18:24;;;;;;;2.80;1.20;;;25.10;60.60;;;;;;5013425;28;20578;-50
2022/08/21 12:21:05;;;;;;;4.10;1.50;;;25.20;60.40;;;;;;5013983;28;20480;-48
2022/08/21 12:23:43;;;;;;;3.53;1.70;;;25.10;60.50;;;;;;5013781;28;20468;-50
2022/08/21 12:26:26;;;;;;;2.30;1.13;;;25.10;61.20;;;;;;5012780;28;20434;-49
2022/08/21 12:29:14;;;;;;;2.30;1.37;;;25.10;59.80;;;;;;5012329;28;20448;-50
2022/08/21 12:31:58;;;;;;;3.63;1.97;;;25.10;60.50;;;;;;5012894;28;20495;-48
2022/08/21 12:34:32;;;;;;;2.87;1.60;;;25.20;61.10;;;;;;5012698;28;20980;-49
2022/08/21 12:37:03;;;;;;;3.37;1.50;;;25.10;62.20;;;;;;5012724;28;20445;-50
2022/08/21 12:39:34;;;;;;;3.20;1.40;;;25.10;62.50;;;;;;5012408;28;20449;-48
2022/08/21 12:42:05;;;;;;;3.83;1.57;;;25.20;62.60;;;;;;5012644;28;20793;-49
2022/08/21 12:44:39;;;;;;;3.73;1.40;;;25.20;62.30;;;;;;5012466;28;20452;-50
2022/08/21 12:47:13;;;;;;;6.00;1.37;;;25.10;61.80;;;;;;5012698;28;20850;-50
2022/08/21 12:49:49;;;;;;;2.40;1.20;;;25.40;62.00;;;;;;5012453;28;20427;-50
2022/08/21 12:52:21;;;;;;;3.23;1.27;;;25.40;61.20;;;;;;5012450;28;20443;-50
2022/08/21 12:54:49;;;;;;;2.90;1.07;;;25.20;59.70;;;;;;5010729;28;20480;-49
2022/08/21 12:57:21;;;;;;;1.90;0.90;;;25.20;58.80;;;;;;5011945;28;20812;-48
2022/08/21 12:59:53;;;;;;;2.70;1.40;;;25.20;57.80;;;;;;5011737;28;20433;-49